Time,TemperatureF,DewpointF,PressureIn,WindDirection,WindDirectionDegrees,WindSpeedMPH,WindSpeedGustMPH,Humidity,HourlyPrecipIn,Conditions,Clouds,dailyrainin,SoftwareType,DateUTC
2013-08-13 00:03:00,60.0,54.0,-100.00,SSW,210,22.0,31.0,81,-99.99,,,-99.99,,2013-08-13 04:03:00,
2013-08-13 00:12:00,60.0,54.0,-100.00,SSW,210,22.0,31.0,81,-99.99,,,-99.99,,2013-08-13 04:12:00,
2013-08-13 01:51:00,58.0,51.0,-100.00,East,90,18.0,25.0,77,-99.99,,,-99.99,,2013-08-13 05:51:00,
2013-08-13 02:01:00,58.0,51.0,-100.00,East,90,18.0,25.0,77,-99.99,,,-99.99,,2013-08-13 06:01:00,
2013-08-13 03:41:00,57.0,50.0,-100.00,ENE,70,18.0,22.0,78,-99.99,,,-99.99,,2013-08-13 07:41:00,
2013-08-13 04:11:00,57.0,50.0,-100.00,ESE,120,20.0,29.0,78,-99.99,,,-99.99,,2013-08-13 08:11:00,
2013-08-13 04:21:00,57.0,50.0,-100.00,ESE,120,20.0,29.0,78,-99.99,,,-99.99,,2013-08-13 08:21:00,
2013-08-13 04:31:00,57.0,50.0,-100.00,ESE,120,20.0,29.0,78,-99.99,,,-99.99,,2013-08-13 08:31:00,
2013-08-13 06:23:00,56.0,49.0,-100.00,ESE,120,18.0,25.0,78,-99.99,,,-99.99,,2013-08-13 10:23:00,
2013-08-13 06:42:00,56.0,49.0,-100.00,ENE,60,20.0,25.0,77,-99.99,,,-99.99,,2013-08-13 10:42:00,
2013-08-13 07:22:00,56.0,49.0,-100.00,East,90,20.0,29.0,77,-99.99,,,-99.99,,2013-08-13 11:22:00,
2013-08-13 08:21:00,57.0,48.0,-100.00,East,80,18.0,25.0,73,-99.99,,,-99.99,,2013-08-13 12:21:00,
2013-08-13 09:52:00,57.0,47.0,-100.00,ENE,70,18.0,25.0,70,-99.99,,,-99.99,,2013-08-13 13:52:00,
2013-08-13 10:01:00,57.0,47.0,-100.00,ENE,70,18.0,25.0,70,-99.99,,,-99.99,,2013-08-13 14:01:00,
2013-08-13 10:52:00,56.0,46.0,-100.00,ENE,70,18.0,25.0,68,-99.99,,,-99.99,,2013-08-13 14:52:00,
2013-08-13 13:27:00,58.0,47.0,-100.00,WNW,290,18.0,22.0,67,-99.99,,,-99.99,,2013-08-13 17:27:00,
2013-08-13 13:40:00,59.0,47.0,-100.00,WNW,290,20.0,27.0,64,-99.99,,,-99.99,,2013-08-13 17:40:00,
2013-08-13 13:45:00,-999.0,-99.9,-100.00,West,270,20.0,27.0,66,-99.99,,,-99.99,,2013-08-13 17:45:00,
2013-08-13 14:25:00,59.0,47.0,-100.00,WNW,290,20.0,27.0,64,-99.99,,,-99.99,,2013-08-13 18:25:00,
2013-08-13 14:37:00,59.0,47.0,-100.00,WNW,290,20.0,27.0,64,-99.99,,,-99.99,,2013-08-13 18:37:00,
2013-08-13 16:15:00,59.0,46.0,-100.00,West,270,22.0,31.0,61,-99.99,,,-99.99,,2013-08-13 20:15:00,
2013-08-13 16:20:00,59.0,46.0,-100.00,South,180,22.0,29.0,62,-99.99,,,-99.99,,2013-08-13 20:20:00,
2013-08-13 16:22:00,59.0,46.0,-100.00,West,270,22.0,31.0,61,-99.99,,,-99.99,,2013-08-13 20:22:00,
2013-08-13 17:11:00,59.0,46.0,-100.00,South,180,22.0,29.0,62,-99.99,,,-99.99,,2013-08-13 21:11:00,
2013-08-13 17:54:00,59.0,48.0,-100.00,SSW,210,22.0,29.0,66,-99.99,,,-99.99,,2013-08-13 21:54:00,
2013-08-13 18:03:00,59.0,48.0,-100.00,SSW,210,22.0,29.0,66,-99.99,,,-99.99,,2013-08-13 22:03:00,
2013-08-13 19:26:00,59.0,49.0,-100.00,SE,130,18.0,25.0,71,-99.99,,,-99.99,,2013-08-13 23:26:00,
2013-08-13 20:11:00,59.0,50.0,-100.00,ESE,110,20.0,27.0,71,-99.99,,,-99.99,,2013-08-14 00:11:00,
2013-08-13 20:21:00,59.0,50.0,-100.00,ESE,110,20.0,27.0,71,-99.99,,,-99.99,,2013-08-14 00:21:00,
2013-08-13 21:00:00,59.0,49.0,-100.00,ENE,60,16.0,22.0,69,-99.99,,,-99.99,,2013-08-14 01:00:00,
2013-08-13 21:42:00,59.0,49.0,-100.00,ENE,60,16.0,22.0,69,-99.99,,,-99.99,,2013-08-14 01:42:00,
2013-08-13 21:52:00,59.0,49.0,-100.00,ENE,60,16.0,22.0,69,-99.99,,,-99.99,,2013-08-14 01:52:00,
2013-08-13 23:22:00,59.0,50.0,-100.00,SSW,200,20.0,27.0,72,-99.99,,,-99.99,,2013-08-14 03:22:00,